Yatesville, Pennsylvania
Current Conditions -  °F | °C
As of 4:54 PM on Wednesday 28 Jan 2015 (Local Time) from KAVP Reporting Station
Clear Clear  
Wind Chill: 17°   Ceiling: Unl
Heat Index: 27°   Visibility: 10mi
Dew Point:   Wind: 10mph
Humidity: 34%   Direction: 340°NNW
Pressure: 30.17"   Gusts: 22mph
Location:  41.2973°N, 75.7399°W
Report Text: KAVP 282154Z AUTO 34009G19KT 10SM CLR M03/M17 A3017 RMK AO2 SLP232 T10281167
Loading
Personal Weather Stations






























Interactive Weather Map New forecast layout! Learn more

10-Day Weather Forecast

Advertisements
Track Severe Weather on mobile